Time;durP1;ratioP1;P1;durP2;ratioP2;P2;SDS_P1;SDS_P2;PMS_P1;PMS_P2;Temp;Humidity;BMP_temperature;BMP_pressure;BME280_temperature;BME280_humidity;BME280_pressure;Samples;Min_cycle;Max_cycle;Signal;HPM_P1;HPM_P2
2022/07/12 00:00:36;;;;;;;4.68;4.25;;;;;;;20.95;66.00;99241.59;5072200;28;20056;-78
2022/07/12 00:03:03;;;;;;;5.15;4.22;;;;;;;20.69;66.29;99224.28;5071985;28;20517;-78
2022/07/12 00:05:30;;;;;;;5.63;4.60;;;;;;;20.67;66.88;99245.56;5071970;28;20052;-78
2022/07/12 00:07:57;;;;;;;5.50;3.78;;;;;;;20.69;67.13;99250.81;5071791;28;20049;-78
2022/07/12 00:10:24;;;;;;;6.75;4.45;;;;;;;20.58;66.75;99243.38;5072349;28;20144;-79
2022/07/12 00:12:51;;;;;;;4.60;4.25;;;;;;;20.58;66.88;99246.00;5062839;28;20532;-78
2022/07/12 00:15:18;;;;;;;5.07;3.80;;;;;;;20.63;67.01;99263.44;5068511;28;20048;-79
2022/07/12 00:17:46;;;;;;;5.97;4.40;;;;;;;20.60;67.16;99254.75;5071961;28;20049;-78
2022/07/12 00:20:13;;;;;;;5.63;4.40;;;;;;;20.48;67.35;99229.66;5072189;28;20084;-78
2022/07/12 00:22:40;;;;;;;5.50;4.60;;;;;;;20.56;67.00;99248.69;5075286;28;20201;-80
2022/07/12 00:25:07;;;;;;;6.03;4.30;;;;;;;20.52;67.16;99246.28;5075729;28;20052;-79
2022/07/12 00:27:34;;;;;;;6.40;4.55;;;;;;;20.52;67.26;99247.16;5071986;28;20056;-80
2022/07/12 00:30:02;;;;;;;6.53;4.72;;;;;;;20.58;67.10;99240.72;5065485;28;20052;-77
2022/07/12 00:32:29;;;;;;;4.72;4.10;;;;;;;20.57;66.99;99247.81;5075717;28;20048;-81
2022/07/12 00:34:56;;;;;;;6.32;4.15;;;;;;;20.56;66.73;99248.69;5074342;28;20068;-79
2022/07/12 00:37:23;;;;;;;5.97;4.28;;;;;;;20.61;66.71;99237.94;5075785;28;20048;-78
2022/07/12 00:39:50;;;;;;;4.57;4.13;;;;;;;20.61;66.82;99238.78;5075577;28;20053;-79
2022/07/12 00:42:17;;;;;;;4.55;4.15;;;;;;;20.61;66.95;99240.59;5075584;28;20143;-79
2022/07/12 00:44:44;;;;;;;5.18;3.88;;;;;;;20.57;67.19;99212.44;5075208;28;20064;-79
2022/07/12 00:47:45;;;;;;;5.93;4.22;;;;;;;20.51;67.00;99197.66;5075398;28;20098;-79
2022/07/12 00:50:21;;;;;;;5.00;4.47;;;;;;;20.49;67.59;99209.28;5071301;28;20057;-77
2022/07/12 00:53:06;;;;;;;4.68;4.28;;;;;;;20.42;67.93;99201.63;5074975;28;20060;-78
2022/07/12 00:55:35;;;;;;;7.30;4.60;;;;;;;20.39;68.07;99190.28;5074073;28;20056;-79
2022/07/12 00:58:02;;;;;;;6.35;4.70;;;;;;;20.32;68.54;99178.25;5075170;28;20425;-79
2022/07/12 01:00:30;;;;;;;5.07;4.57;;;;;;;20.29;68.52;99170.47;5071248;28;20049;-79
2022/07/12 01:03:00;;;;;;;6.03;4.65;;;;;;;20.13;69.09;99144.66;5065624;28;20086;-81
2022/07/12 01:05:29;;;;;;;5.25;4.45;;;;;;;20.06;68.99;99145.88;5075136;28;20139;-80
2022/07/12 01:07:56;;;;;;;7.53;4.70;;;;;;;20.26;68.70;99182.03;5074740;28;20064;-79
2022/07/12 01:10:24;;;;;;;6.20;4.93;;;;;;;20.31;68.61;99200.41;5074973;28;20058;-80
2022/07/12 01:12:52;;;;;;;6.00;5.10;;;;;;;20.32;68.36;99189.72;5074922;28;20060;-78
2022/07/12 01:15:20;;;;;;;5.97;5.13;;;;;;;20.40;68.36;99203.47;5074863;28;20048;-79
2022/07/12 01:17:48;;;;;;;6.75;5.57;;;;;;;20.30;68.21;99173.03;5074702;28;20061;-79
2022/07/12 01:20:20;;;;;;;7.43;5.40;;;;;;;20.47;68.05;99190.78;5075148;28;20044;-79
2022/07/12 01:22:55;;;;;;;7.13;5.47;;;;;;;20.50;68.06;99169.44;5074630;28;20048;-78
2022/07/12 01:25:22;;;;;;;6.28;5.50;;;;;;;20.52;67.82;99159.63;5074825;28;20055;-79
2022/07/12 01:27:50;;;;;;;6.50;5.90;;;;;;;20.52;67.87;99141.03;5074561;28;20060;-79
2022/07/12 01:30:17;;;;;;;9.90;5.90;;;;;;;20.55;67.74;99143.53;5074675;28;20060;-79
2022/07/12 01:32:44;;;;;;;6.75;5.82;;;;;;;20.50;67.93;99132.28;5074482;28;20052;-79
2022/07/12 01:35:12;;;;;;;9.52;6.10;;;;;;;20.45;67.69;99113.94;5074742;28;20056;-78
2022/07/12 01:37:42;;;;;;;5.65;5.07;;;;;;;20.46;67.61;99122.75;5074527;28;20086;-78
2022/07/12 01:40:12;;;;;;;8.23;5.32;;;;;;;20.50;67.83;99129.66;5074325;28;20078;-79
2022/07/12 01:42:40;;;;;;;7.07;5.55;;;;;;;20.55;67.57;99130.25;5074487;28;20059;-79
2022/07/12 01:45:08;;;;;;;6.18;5.35;;;;;;;20.67;67.67;99136.78;5074349;28;20190;-77
2022/07/12 01:47:36;;;;;;;6.25;5.38;;;;;;;20.64;67.52;99127.19;5074327;28;20629;-78
2022/07/12 01:50:07;;;;;;;7.72;5.68;;;;;;;20.75;67.10;99129.28;5072868;28;20055;-79
2022/07/12 01:52:36;;;;;;;6.35;5.70;;;;;;;20.79;67.08;99124.72;5074742;28;20224;-81
2022/07/12 01:55:04;;;;;;;5.97;5.47;;;;;;;20.79;66.73;99116.75;5074099;28;20135;-78
2022/07/12 01:57:32;;;;;;;6.22;5.65;;;;;;;20.85;66.90;99111.13;5074575;28;20075;-78
2022/07/12 02:00:02;;;;;;;7.05;5.78;;;;;;;20.83;66.86;99120.97;5073793;28;20588;-79
2022/07/12 02:02:31;;;;;;;8.30;5.97;;;;;;;20.84;66.86;99123.56;5074155;28;20052;-79
2022/07/12 02:05:03;;;;;;;8.85;6.45;;;;;;;20.82;67.01;99116.56;5073793;28;20131;-80
2022/07/12 02:07:31;;;;;;;7.38;5.55;;;;;;;20.83;67.00;99111.19;5073948;28;20083;-79
2022/07/12 02:09:58;;;;;;;6.53;5.68;;;;;;;20.78;67.05;99117.66;5068468;28;20099;-78
2022/07/12 02:12:25;;;;;;;10.18;6.15;;;;;;;20.71;67.52;99095.88;5066216;28;20060;-78
2022/07/12 02:14:52;;;;;;;7.03;5.68;;;;;;;20.79;67.41;99099.03;5073720;28;20049;-78
2022/07/12 02:17:19;;;;;;;7.75;6.05;;;;;;;20.79;67.31;99091.06;5074002;28;20052;-78
2022/07/12 02:19:46;;;;;;;7.22;6.20;;;;;;;20.93;66.18;99082.41;5072035;28;20468;-80
2022/07/12 02:22:13;;;;;;;6.97;6.25;;;;;;;21.03;66.24;99086.28;5073496;28;20052;-79
2022/07/12 02:24:40;;;;;;;8.15;6.10;;;;;;;21.07;65.73;99074.56;5073446;28;20567;-80
2022/07/12 02:27:07;;;;;;;8.00;5.60;;;;;;;21.10;65.77;99078.88;5073206;28;20053;-79
2022/07/12 02:29:37;;;;;;;11.63;6.40;;;;;;;21.13;65.79;99061.94;5073746;28;20106;-79
2022/07/12 02:32:04;;;;;;;7.80;6.00;;;;;;;21.13;65.91;99084.03;5073589;28;20048;-79
2022/07/12 02:34:31;;;;;;;12.18;6.70;;;;;;;21.07;65.95;99071.91;5073247;28;20090;-79
2022/07/12 02:36:59;;;;;;;9.70;6.90;;;;;;;21.11;66.06;99079.72;5073116;28;20049;-79
2022/07/12 02:39:26;;;;;;;6.82;6.13;;;;;;;21.08;66.21;99059.50;5073258;28;20052;-77
2022/07/12 02:41:53;;;;;;;10.27;7.00;;;;;;;21.14;65.72;99067.13;5071934;28;20075;-78
2022/07/12 02:44:20;;;;;;;8.90;6.45;;;;;;;21.22;65.37;99070.25;5063806;28;20552;-79
2022/07/12 02:46:47;;;;;;;7.57;6.20;;;;;;;21.31;65.03;99097.25;5069046;28;20060;-80
2022/07/12 02:49:14;;;;;;;7.78;5.65;;;;;;;21.35;64.43;99080.22;5072821;28;20075;-78
2022/07/12 02:51:41;;;;;;;9.45;5.95;;;;;;;21.38;64.42;99078.28;5073130;28;20529;-79
2022/07/12 02:54:08;;;;;;;6.57;5.68;;;;;;;21.32;64.31;99070.63;5072955;28;20581;-79
2022/07/12 02:56:35;;;;;;;8.23;5.90;;;;;;;21.44;64.23;99067.31;5073341;28;20087;-79
2022/07/12 02:59:02;;;;;;;7.43;6.00;;;;;;;21.44;64.02;99069.97;5076068;28;20555;-80
2022/07/12 03:01:30;;;;;;;8.23;5.70;;;;;;;21.53;63.85;99068.66;5077086;28;20523;-78
2022/07/12 03:03:57;;;;;;;10.70;6.28;;;;;;;21.58;63.14;99082.53;5078811;28;20062;-79
2022/07/12 03:06:24;;;;;;;8.20;6.15;;;;;;;21.58;63.15;99069.25;5075105;28;20056;-80
2022/07/12 03:08:51;;;;;;;10.18;6.57;;;;;;;21.52;63.02;99050.13;5072677;28;20052;-80
2022/07/12 03:11:18;;;;;;;8.15;6.47;;;;;;;21.69;63.16;99079.28;5072728;28;20048;-78
2022/07/12 03:13:45;;;;;;;11.15;6.45;;;;;;;21.71;63.03;99082.72;5068656;28;20049;-79
2022/07/12 03:16:13;;;;;;;9.90;5.97;;;;;;;21.60;62.76;99063.88;5063557;28;20068;-78
2022/07/12 03:18:40;;;;;;;7.15;6.30;;;;;;;21.63;62.77;99061.88;5072838;28;20122;-78
2022/07/12 03:21:07;;;;;;;9.40;5.72;;;;;;;21.79;62.55;99076.97;5072476;28;20071;-79
2022/07/12 03:23:35;;;;;;;10.50;5.75;;;;;;;21.84;62.25;99078.44;5072493;28;20056;-79
2022/07/12 03:26:03;;;;;;;9.73;5.93;;;;;;;21.94;61.68;99086.78;5070923;28;20051;-79
2022/07/12 03:28:30;;;;;;;8.05;6.00;;;;;;;22.03;61.43;99066.81;5072599;28;20505;-79
2022/07/12 03:30:56;;;;;;;10.85;6.50;;;;;;;22.18;60.80;99073.91;5072533;28;20067;-79
2022/07/12 03:33:24;;;;;;;10.07;5.88;;;;;;;22.23;59.94;99058.56;5071179;28;20056;-78
2022/07/12 03:35:59;;;;;;;8.65;5.88;;;;;;;22.31;59.86;99074.09;5072348;28;20143;-79
2022/07/12 03:38:26;;;;;;;7.35;5.70;;;;;;;22.40;59.44;99086.00;5073151;28;20056;-79
2022/07/12 03:40:53;;;;;;;9.85;6.50;;;;;;;22.39;59.51;99079.84;5070987;28;20110;-81
2022/07/12 03:43:20;;;;;;;11.23;5.97;;;;;;;22.53;59.35;99086.16;5071076;28;20059;-81
2022/07/12 03:45:47;;;;;;;10.23;6.10;;;;;;;22.48;59.38;99065.16;5072327;28;20057;-79
2022/07/12 03:48:14;;;;;;;8.63;5.55;;;;;;;22.64;58.99;99089.91;5072192;28;20056;-79
2022/07/12 03:50:41;;;;;;;11.07;5.72;;;;;;;22.41;59.09;99040.69;5072311;28;20076;-78
2022/07/12 03:53:08;;;;;;;6.20;5.50;;;;;;;22.39;59.33;99074.50;5071115;28;20053;-78
2022/07/12 03:55:34;;;;;;;8.73;5.97;;;;;;;22.28;59.71;99061.84;5062800;28;21177;-79
2022/07/12 03:58:03;;;;;;;12.52;6.55;;;;;;;22.37;59.64;99080.84;5055751;28;20049;-79
2022/07/12 04:00:30;;;;;;;9.38;6.20;;;;;;;22.28;59.70;99076.91;5056349;28;20056;-79
2022/07/12 04:02:57;;;;;;;8.05;6.05;;;;;;;22.33;59.28;99080.19;5055975;28;20057;-80
2022/07/12 04:05:26;;;;;;;7.35;5.80;;;;;;;22.26;59.35;99062.84;5062751;28;20052;-80
2022/07/12 04:07:54;;;;;;;8.48;5.80;;;;;;;22.42;59.07;99084.97;5075896;28;20084;-79
2022/07/12 04:10:21;;;;;;;8.27;5.97;;;;;;;22.47;59.32;99082.03;5075679;28;20059;-79
2022/07/12 04:12:49;;;;;;;8.30;5.75;;;;;;;22.56;59.16;99081.50;5075974;28;20505;-79
2022/07/12 04:15:17;;;;;;;8.15;5.53;;;;;;;22.56;59.31;99085.97;5074265;28;20063;-79
2022/07/12 04:17:44;;;;;;;8.43;5.35;;;;;;;22.69;58.68;99093.16;5066953;28;20044;-79
2022/07/12 04:20:12;;;;;;;8.50;5.88;;;;;;;22.83;57.93;99091.47;5065033;28;20135;-80
2022/07/12 04:22:39;;;;;;;12.07;5.85;;;;;;;22.97;57.63;99099.50;5075711;28;20056;-79
2022/07/12 04:25:07;;;;;;;10.50;5.55;;;;;;;23.04;57.49;99095.56;5071603;28;20522;-79
2022/07/12 04:27:36;;;;;;;;;;;;;;;23.04;57.60;99100.88;5067191;28;20056;-79
2022/07/12 04:30:04;;;;;;;6.95;5.22;;;;;;;23.27;56.58;99118.16;5075336;28;19989;-82
2022/07/12 04:32:31;;;;;;;8.48;5.22;;;;;;;23.27;56.44;99117.28;5074047;28;20049;-80
2022/07/12 04:34:58;;;;;;;8.55;5.78;;;;;;;23.16;56.51;99080.63;5073630;28;20513;-80
2022/07/12 04:37:25;;;;;;;8.45;5.70;;;;;;;23.36;56.06;99127.38;5074179;28;20052;-80
2022/07/12 04:39:51;;;;;;;12.95;5.25;;;;;;;23.35;55.93;99101.69;5075273;28;20080;-83
2022/07/12 04:42:19;;;;;;;10.88;5.53;;;;;;;23.46;55.48;99123.19;5075437;28;20048;-81
2022/07/12 04:44:48;;;;;;;9.80;5.18;;;;;;;23.61;54.75;99094.72;5067387;28;20151;-81
2022/07/12 04:47:15;;;;;;;5.88;5.00;;;;;;;23.84;54.39;99105.81;5067252;28;20053;-81
2022/07/12 04:49:42;;;;;;;8.25;5.75;;;;;;;23.72;54.70;99110.06;5035715;28;20053;-82
2022/07/12 04:52:09;;;;;;;12.75;5.28;;;;;;;23.54;55.10;99103.22;5035215;28;20076;-84
2022/07/12 04:54:36;;;;;;;9.65;5.63;;;;;;;23.28;55.62;99095.03;5035377;28;20088;-83
2022/07/12 04:57:06;;;;;;;9.05;5.88;;;;;;;23.25;55.83;99101.41;5035151;28;20499;-82
2022/07/12 04:59:33;;;;;;;5.75;5.07;;;;;;;23.09;55.79;99096.13;5035560;28;20049;-81
2022/07/12 05:02:01;;;;;;;10.48;5.22;;;;;;;23.16;55.77;99106.41;5033800;28;20084;-81
2022/07/12 05:04:32;;;;;;;8.95;5.78;;;;;;;23.17;55.71;99106.34;5033745;28;20055;-82
2022/07/12 05:06:59;;;;;;;9.13;5.28;;;;;;;23.08;55.76;99082.91;5037919;28;20500;-81
2022/07/12 05:09:27;;;;;;;9.77;5.78;;;;;;;23.22;55.72;99112.22;5057199;28;20068;-81
2022/07/12 05:11:58;;;;;;;8.48;5.20;;;;;;;23.24;55.78;99117.47;5065619;28;20052;-82
2022/07/12 05:14:28;;;;;;;5.65;4.95;;;;;;;23.28;55.44;99119.84;5066467;28;20064;-83
2022/07/12 05:16:55;;;;;;;8.07;5.18;;;;;;;23.46;54.75;99115.19;5072815;28;20044;-82
2022/07/12 05:19:23;;;;;;;9.95;5.50;;;;;;;23.54;54.86;99121.88;5072784;28;20158;-81
2022/07/12 05:21:50;;;;;;;8.90;5.43;;;;;;;23.63;54.10;99119.47;5074572;28;20078;-81
2022/07/12 05:24:17;;;;;;;12.10;4.60;;;;;;;23.70;53.96;99127.94;5074811;28;20060;-82
2022/07/12 05:26:44;;;;;;;6.20;4.80;;;;;;;23.64;54.23;99123.88;5075179;28;20505;-81
2022/07/12 05:29:11;;;;;;;8.57;4.88;;;;;;;23.81;53.56;99122.88;5046996;28;20523;-81
2022/07/12 05:31:38;;;;;;;6.63;4.78;;;;;;;23.85;53.34;99084.34;5034657;28;20502;-84
2022/07/12 05:34:05;;;;;;;9.18;5.07;;;;;;;23.92;52.89;99083.03;5034568;28;20144;-82
2022/07/12 05:36:32;;;;;;;7.88;4.80;;;;;;;24.16;52.87;99121.56;5034636;28;20053;-80
2022/07/12 05:38:59;;;;;;;7.70;4.60;;;;;;;24.24;52.47;99116.56;5034641;28;20140;-82
2022/07/12 05:41:26;;;;;;;5.72;4.40;;;;;;;24.41;51.91;99129.66;5033290;28;20401;-83
2022/07/12 05:43:53;;;;;;;11.32;4.95;;;;;;;24.56;51.69;99127.84;5034830;28;20057;-84
2022/07/12 05:46:20;;;;;;;10.10;4.97;;;;;;;24.75;50.97;99118.63;5034974;28;20072;-82
2022/07/12 05:48:48;;;;;;;11.25;5.00;;;;;;;25.06;50.41;99120.06;5034284;28;20491;-82
2022/07/12 05:54:01;;;;;;;9.82;5.40;;;;;;;25.74;49.11;99130.47;5034517;28;20053;-83
2022/07/12 05:56:28;;;;;;;11.95;5.20;;;;;;;26.17;47.58;99131.91;5067190;28;20056;-83
2022/07/12 05:58:55;;;;;;;7.22;5.25;;;;;;;26.26;47.33;99115.19;5034533;28;20069;-84
2022/07/12 06:01:22;;;;;;;8.68;4.82;;;;;;;26.09;47.62;99120.91;5033061;28;20056;-84
2022/07/12 06:03:49;;;;;;;13.48;6.03;;;;;;;26.07;47.86;99134.44;5034503;28;20057;-83
2022/07/12 06:06:16;;;;;;;9.05;5.03;;;;;;;26.11;47.61;99117.19;5033944;28;20049;-82
2022/07/12 06:08:43;;;;;;;8.27;4.90;;;;;;;26.19;47.71;99132.66;5049391;28;20049;-84
2022/07/12 06:11:10;;;;;;;9.23;5.20;;;;;;;26.28;47.53;99144.53;5033577;28;20495;-84
2022/07/12 06:13:37;;;;;;;12.48;5.32;;;;;;;26.00;47.77;99109.06;5032361;28;20053;-85
2022/07/12 06:16:05;;;;;;;10.38;5.38;;;;;;;25.80;48.57;99134.53;5065493;28;20057;-84
2022/07/12 06:18:36;;;;;;;7.93;5.20;;;;;;;25.64;49.06;99124.09;5033421;28;20057;-85
2022/07/12 06:21:03;;;;;;;7.90;5.28;;;;;;;25.60;48.75;99125.25;5033874;28;20123;-83
2022/07/12 06:23:30;;;;;;;8.05;5.05;;;;;;;25.25;49.82;99133.06;5033673;28;20049;-84
2022/07/12 06:25:57;;;;;;;10.57;4.88;;;;;;;25.09;50.14;99118.03;5033014;28;20061;-85
2022/07/12 06:28:24;;;;;;;9.32;5.00;;;;;;;25.06;50.30;99147.66;5033409;28;20045;-79
2022/07/12 06:30:51;;;;;;;10.10;5.38;;;;;;;24.95;50.98;99147.50;5033622;28;20063;-80
2022/07/12 06:33:19;;;;;;;9.90;5.35;;;;;;;25.07;50.95;99113.78;5033205;28;20088;-83
2022/07/12 06:35:46;;;;;;;8.20;4.68;;;;;;;25.57;48.96;99141.50;5033071;28;20407;-81
2022/07/12 06:38:12;;;;;;;11.75;5.20;;;;;;;25.92;48.14;99138.19;5033288;28;20115;-82
2022/07/12 06:40:39;;;;;;;9.18;4.90;;;;;;;26.17;47.32;99141.78;5033425;28;20053;-81
2022/07/12 06:43:13;;;;;;;6.43;4.72;;;;;;;26.07;47.63;99138.91;5033173;28;20077;-81
2022/07/12 06:45:41;;;;;;;7.60;4.90;;;;;;;26.25;47.57;99156.31;5065273;28;20057;-81
2022/07/12 06:48:08;;;;;;;11.57;5.20;;;;;;;26.79;46.41;99135.47;5031613;28;20522;-80
2022/07/12 06:50:35;;;;;;;7.97;5.45;;;;;;;26.88;45.62;99132.06;5033515;28;20555;-80
2022/07/12 06:53:02;;;;;;;9.25;4.68;;;;;;;26.76;45.70;99137.41;5032877;28;20391;-83
2022/07/12 06:55:30;;;;;;;6.47;5.43;;;;;;;26.64;46.23;99146.34;5032667;28;20057;-83
2022/07/12 06:57:57;;;;;;;7.65;5.10;;;;;;;26.85;45.90;99140.38;5031819;28;20061;-82
2022/07/12 07:00:26;;;;;;;6.82;4.80;;;;;;;26.73;45.96;99147.47;5032813;28;20521;-81
2022/07/12 07:02:53;;;;;;;12.13;6.15;;;;;;;26.39;46.78;99135.72;5045840;28;20060;-80
2022/07/12 07:05:21;;;;;;;12.15;5.28;;;;;;;26.31;46.98;99141.66;5055540;28;20044;-81
2022/07/12 07:07:48;;;;;;;12.60;5.13;;;;;;;26.11;47.79;99145.75;5073394;28;20056;-80
2022/07/12 07:10:15;;;;;;;8.07;5.18;;;;;;;26.12;47.67;99151.00;5082788;28;20049;-80
2022/07/12 07:12:42;;;;;;;10.10;5.68;;;;;;;26.21;47.28;99117.34;5082374;28;20072;-79
2022/07/12 07:15:10;;;;;;;11.40;4.97;;;;;;;26.48;47.15;99143.94;5086446;28;20056;-81
2022/07/12 07:17:36;;;;;;;6.63;5.30;;;;;;;26.51;46.75;99150.88;5081170;28;20082;-83
2022/07/12 07:20:04;;;;;;;9.15;4.97;;;;;;;26.47;47.20;99160.09;5073096;28;20053;-82
2022/07/12 07:22:31;;;;;;;9.52;5.07;;;;;;;26.68;46.56;99155.00;5072783;28;20040;-81
2022/07/12 07:24:58;;;;;;;12.02;5.47;;;;;;;26.99;46.46;99153.53;5072355;28;20482;-81
2022/07/12 07:27:25;;;;;;;6.88;4.85;;;;;;;27.13;45.40;99174.81;5071170;28;20056;-81
2022/07/12 07:32:39;;;;;;;9.32;5.40;;;;;;;26.63;47.13;99151.81;5072746;28;20474;-80
2022/07/12 07:35:06;;;;;;;13.20;5.28;;;;;;;26.30;47.87;99169.34;5072390;28;20072;-80
2022/07/12 07:37:34;;;;;;;11.77;5.50;;;;;;;25.82;49.03;99172.75;5071889;28;20435;-80
2022/07/12 07:40:01;;;;;;;8.68;4.63;;;;;;;25.63;49.66;99159.81;5061944;28;20049;-82
2022/07/12 07:42:30;;;;;;;12.00;5.18;;;;;;;25.45;49.70;99180.66;5070670;28;20143;-81
2022/07/12 07:44:56;;;;;;;8.77;4.93;;;;;;;25.32;49.90;99171.78;5072358;28;20125;-83
2022/07/12 07:47:52;;;;;;;9.00;4.55;;;;;;;25.16;50.35;99157.72;5072026;28;20048;-80
2022/07/12 07:50:39;;;;;;;10.77;4.65;;;;;;;25.33;49.84;99157.44;5072153;28;20052;-79
2022/07/12 07:53:06;;;;;;;12.13;4.68;;;;;;;25.56;49.29;99155.00;5070755;28;20048;-81
2022/07/12 07:55:33;;;;;;;8.18;5.28;;;;;;;26.08;48.53;99186.13;5071959;28;20094;-80
2022/07/12 07:58:00;;;;;;;6.50;4.30;;;;;;;26.68;47.40;99189.84;5072187;28;20075;-81
2022/07/12 08:00:28;;;;;;;11.38;4.60;;;;;;;26.82;47.14;99184.28;5070772;28;20218;-82
2022/07/12 08:02:55;;;;;;;10.48;5.00;;;;;;;26.75;47.39;99183.91;5073099;28;20094;-81
2022/07/12 08:05:23;;;;;;;11.55;5.25;;;;;;;26.99;47.00;99174.97;5071318;28;20048;-82
2022/07/12 08:07:55;;;;;;;9.05;5.28;;;;;;;27.30;46.32;99181.59;5072426;28;20056;-80
2022/07/12 08:10:23;;;;;;;9.57;4.85;;;;;;;27.46;45.57;99154.44;5071921;28;20052;-81
2022/07/12 08:12:50;;;;;;;10.02;4.95;;;;;;;27.89;44.73;99182.44;5060926;28;20064;-82
2022/07/12 08:15:17;;;;;;;13.13;4.90;;;;;;;27.95;44.83;99190.00;5069463;28;20551;-82
2022/07/12 08:17:44;;;;;;;10.32;4.82;;;;;;;27.95;44.81;99190.84;5065595;28;20049;-81
2022/07/12 08:20:20;;;;;;;9.10;5.03;;;;;;;27.70;45.46;99196.41;5051758;28;20490;-82
2022/07/12 08:23:08;;;;;;;8.18;4.47;;;;;;;27.66;45.85;99190.44;5051979;28;20045;-83
2022/07/12 08:25:38;;;;;;;6.80;4.80;;;;;;;27.73;45.47;99197.03;5052234;28;20053;-81
2022/07/12 08:28:05;;;;;;;6.15;4.63;;;;;;;28.04;44.99;99208.06;5050639;28;20049;-81
2022/07/12 08:30:32;;;;;;;8.27;5.22;;;;;;;28.03;44.94;99206.38;5051344;28;20457;-82
2022/07/12 08:32:59;;;;;;;8.52;4.75;;;;;;;28.39;44.43;99220.47;5050468;28;20143;-83
2022/07/12 08:35:27;;;;;;;12.15;4.88;;;;;;;28.35;44.00;99205.59;5051785;28;20071;-81
2022/07/12 08:37:55;;;;;;;8.27;4.82;;;;;;;27.69;45.31;99213.50;5051796;28;20088;-84
2022/07/12 08:40:23;;;;;;;8.38;4.78;;;;;;;27.16;46.48;99217.44;5050480;28;20048;-81
2022/07/12 08:42:50;;;;;;;14.73;5.80;;;;;;;27.06;46.72;99211.09;5054065;28;20056;-83
2022/07/12 08:45:17;;;;;;;6.55;4.72;;;;;;;27.15;46.88;99207.72;5061185;28;20060;-84
2022/07/12 08:47:44;;;;;;;6.80;4.60;;;;;;;27.07;46.68;99209.25;5075757;28;20052;-83
2022/07/12 08:50:19;;;;;;;6.43;4.45;;;;;;;27.25;46.37;99221.28;5075378;28;20056;-83
2022/07/12 08:52:47;;;;;;;9.65;4.40;;;;;;;27.14;46.53;99214.03;5056986;28;20045;-82
2022/07/12 08:55:22;;;;;;;8.68;4.75;;;;;;;27.16;46.39;99222.81;5044191;28;20111;-82
2022/07/12 08:57:50;;;;;;;10.00;5.07;;;;;;;27.33;45.71;99218.03;5035490;28;20049;-81
2022/07/12 09:00:19;;;;;;;10.98;5.28;;;;;;;27.44;45.80;99228.78;5035187;28;20045;-82
2022/07/12 09:02:55;;;;;;;8.23;4.78;;;;;;;27.66;44.70;99229.81;5067273;28;20564;-82
2022/07/12 09:05:24;;;;;;;10.32;4.65;;;;;;;27.78;44.67;99227.03;5067118;28;20136;-83
2022/07/12 09:08:01;;;;;;;6.78;4.22;;;;;;;27.74;44.10;99230.91;5034935;28;20042;-81
2022/07/12 09:10:28;;;;;;;8.75;4.43;;;;;;;27.77;44.02;99233.38;5042735;28;20091;-81
2022/07/12 09:12:55;;;;;;;7.68;4.85;;;;;;;27.49;43.80;99239.16;5045201;28;20049;-82
2022/07/12 09:15:24;;;;;;;6.13;4.40;;;;;;;27.27;43.78;99234.59;5045274;28;20073;-81
2022/07/12 09:18:12;;;;;;;7.93;4.70;;;;;;;27.22;43.98;99248.34;5043407;28;20049;-81
2022/07/12 09:20:41;;;;;;;4.90;4.40;;;;;;;27.26;44.22;99240.94;5045603;28;20296;-82
2022/07/12 09:23:10;;;;;;;10.13;4.17;;;;;;;27.23;44.44;99236.63;5046961;28;20057;-80
2022/07/12 09:25:38;;;;;;;7.07;4.28;;;;;;;27.42;44.15;99245.97;5043513;28;20048;-81
2022/07/12 09:28:08;;;;;;;5.55;4.32;;;;;;;27.37;43.26;99228.41;5046056;28;20049;-80
2022/07/12 09:30:37;;;;;;;6.70;4.43;;;;;;;27.53;43.33;99232.59;5049140;28;20526;-81
2022/07/12 09:36:12;;;;;;;7.28;4.70;;;;;;;27.66;43.82;99251.28;5054568;28;20152;-81
2022/07/12 09:38:50;;;;;;;5.53;4.50;;;;;;;27.30;44.13;99247.78;5065675;28;20498;-82
2022/07/12 09:41:20;;;;;;;8.88;4.35;;;;;;;27.37;43.29;99235.59;5054844;28;20056;-81
2022/07/12 09:43:48;;;;;;;10.35;4.35;;;;;;;27.27;42.72;99237.25;5054548;28;20056;-84
2022/07/12 09:46:17;;;;;;;11.50;4.47;;;;;;;27.53;42.04;99243.31;5053300;28;20061;-82
2022/07/12 09:48:46;;;;;;;5.70;4.15;;;;;;;27.66;42.14;99244.09;5053130;28;20075;-81
2022/07/12 09:51:16;;;;;;;5.30;4.30;;;;;;;27.46;42.58;99239.41;5086335;28;20056;-80
2022/07/12 09:53:51;;;;;;;7.05;4.65;;;;;;;27.11;43.65;99227.66;5054464;28;20418;-80
2022/07/12 09:56:21;;;;;;;8.48;4.28;;;;;;;27.09;43.42;99237.66;5058658;28;20052;-81
2022/07/12 09:58:54;;;;;;;9.55;4.40;;;;;;;27.05;43.46;99251.41;5064573;28;20472;-81
2022/07/12 10:01:23;;;;;;;6.05;3.90;;;;;;;26.84;43.79;99280.63;5043925;28;20395;-80
2022/07/12 10:03:51;;;;;;;;;;;;;;;26.38;44.95;99273.22;5045985;28;20075;-80
2022/07/12 10:06:26;;;;;;;9.48;4.70;;;;;;;26.47;45.25;99272.56;5045636;28;19971;-81
2022/07/12 10:09:02;;;;;;;7.95;4.97;;;;;;;26.47;46.61;99277.91;5048662;28;20049;-81
2022/07/12 10:11:30;;;;;;;;;;;;;;;26.01;48.24;99284.72;5054151;28;20061;-81
2022/07/12 10:14:18;;;;;;;9.98;4.68;;;;;;;26.14;50.02;99271.31;5053460;28;19924;-81
2022/07/12 10:16:49;;;;;;;7.90;5.60;;;;;;;26.67;49.60;99284.53;5053941;28;20080;-80
2022/07/12 10:19:25;;;;;;;7.70;5.13;;;;;;;26.68;49.32;99279.06;5052970;28;20052;-80
2022/07/12 10:21:55;;;;;;;8.45;5.80;;;;;;;26.46;49.86;99276.22;5053185;28;20059;-80
2022/07/12 10:24:31;;;;;;;5.78;5.15;;;;;;;26.35;50.56;99291.22;5052051;28;20057;-81
2022/07/12 10:27:20;;;;;;;7.45;5.43;;;;;;;26.14;50.55;99284.72;5054273;28;20064;-80
2022/07/12 10:29:51;;;;;;;8.52;5.70;;;;;;;26.01;51.42;99311.47;5061489;28;20497;-81
2022/07/12 10:32:33;;;;;;;6.55;5.40;;;;;;;25.99;51.58;99305.34;5053278;28;20053;-81
2022/07/12 10:35:06;;;;;;;9.50;5.60;;;;;;;26.35;50.64;99301.06;5052925;28;20057;-82
2022/07/12 10:37:34;;;;;;;9.40;4.50;;;;;;;26.59;49.56;99277.06;5053229;28;20064;-79
2022/07/12 10:40:14;;;;;;;8.13;4.70;;;;;;;26.65;49.24;99308.78;5053350;28;20099;-80
2022/07/12 10:43:04;;;;;;;8.10;4.00;;;;;;;26.50;48.56;99304.47;5033248;28;20055;-82
2022/07/12 10:45:35;;;;;;;4.30;2.92;;;;;;;26.66;46.62;99299.75;5033991;28;20063;-83
2022/07/12 10:48:08;;;;;;;5.18;2.60;;;;;;;26.73;44.96;99297.50;5033430;28;20077;-82
2022/07/12 10:50:55;;;;;;;2.78;2.50;;;;;;;26.70;45.28;99303.94;5034118;28;20061;-82
2022/07/12 10:53:33;;;;;;;4.53;2.58;;;;;;;26.76;43.84;99311.53;5033963;28;20050;-82
2022/07/12 10:56:06;;;;;;;4.45;2.38;;;;;;;26.69;43.18;99301.34;5033411;28;20065;-84
2022/07/12 10:58:34;;;;;;;2.75;2.30;;;;;;;26.54;42.94;99297.91;5033225;28;20071;-84
2022/07/12 11:01:05;;;;;;;3.63;2.20;;;;;;;26.67;42.89;99308.63;5033129;28;20058;-83
2022/07/12 11:03:39;;;;;;;4.43;1.98;;;;;;;26.79;41.61;99304.22;5063250;28;20115;-83
2022/07/12 11:06:08;;;;;;;3.45;1.95;;;;;;;27.14;40.61;99304.31;5052863;28;20153;-82
2022/07/12 11:08:47;;;;;;;4.00;1.88;;;;;;;27.35;39.90;99313.47;5053445;28;20049;-84
2022/07/12 11:11:14;;;;;;;4.07;2.22;;;;;;;27.07;39.22;99287.84;5053396;28;20122;-84
2022/07/12 11:13:41;;;;;;;3.83;1.83;;;;;;;27.16;38.52;99311.25;5052669;28;20081;-83
2022/07/12 11:16:08;;;;;;;2.42;1.40;;;;;;;27.11;37.68;99307.22;5052736;28;20057;-83
2022/07/12 11:18:36;;;;;;;2.92;1.50;;;;;;;27.09;37.94;99310.00;5052776;28;20053;-83
2022/07/12 11:21:05;;;;;;;3.10;1.67;;;;;;;27.11;37.99;99300.03;5053304;28;20521;-83
2022/07/12 11:23:32;;;;;;;1.60;1.50;;;;;;;27.17;38.39;99314.81;5054999;28;20049;-83
2022/07/12 11:26:01;;;;;;;2.85;1.50;;;;;;;27.06;38.15;99315.63;5054988;28;20143;-83
2022/07/12 11:28:29;;;;;;;3.45;1.63;;;;;;;27.03;37.96;99310.47;5066533;28;20045;-82
2022/07/12 11:31:17;;;;;;;1.85;1.40;;;;;;;26.80;38.40;99320.16;5062107;28;20064;-83
2022/07/12 11:33:50;;;;;;;2.87;1.53;;;;;;;26.65;39.03;99315.94;5060594;28;20083;-83
2022/07/12 11:36:18;;;;;;;1.88;1.60;;;;;;;26.75;38.21;99304.44;5072978;28;20075;-84
2022/07/12 11:38:46;;;;;;;2.25;1.52;;;;;;;26.82;38.08;99315.56;5072432;28;20363;-82
2022/07/12 11:41:14;;;;;;;1.80;1.70;;;;;;;26.74;37.46;99331.34;5073080;28;20147;-82
2022/07/12 11:43:41;;;;;;;1.88;1.30;;;;;;;26.82;37.69;99312.88;5072852;28;20559;-82
2022/07/12 11:46:09;;;;;;;1.70;1.42;;;;;;;26.87;37.79;99323.28;5072672;28;20110;-84
2022/07/12 11:48:37;;;;;;;3.33;1.48;;;;;;;26.80;37.81;99324.69;5071176;28;20120;-82